Time;durP1;ratioP1;P1;durP2;ratioP2;P2;SDS_P1;SDS_P2;PMS_P1;PMS_P2;Temp;Humidity;BMP_temperature;BMP_pressure;BME280_temperature;BME280_humidity;BME280_pressure;Samples;Min_cycle;Max_cycle;Signal;HPM_P1;HPM_P2
2023/04/10 00:01:34;;;;;;;5.27;4.80;;;22.30;52.80;;;;;;5031171;28;20458;-75
2023/04/10 00:04:03;;;;;;;5.03;4.63;;;22.30;52.80;;;;;;5031638;28;20793;-74
2023/04/10 00:06:32;;;;;;;5.97;5.50;;;22.30;52.80;;;;;;5031050;28;20447;-74
2023/04/10 00:09:01;;;;;;;5.10;4.70;;;22.30;52.80;;;;;;5030978;28;20462;-74
2023/04/10 00:11:30;;;;;;;5.80;5.30;;;22.30;52.80;;;;;;5030566;28;20558;-75
2023/04/10 00:13:58;;;;;;;5.50;5.00;;;22.30;52.80;;;;;;5029812;28;20455;-77
2023/04/10 00:16:26;;;;;;;5.33;4.83;;;22.30;52.80;;;;;;5030804;28;20454;-80
2023/04/10 00:18:54;;;;;;;4.60;4.20;;;22.20;52.80;;;;;;5030988;28;20451;-78
2023/04/10 00:21:23;;;;;;;5.90;5.40;;;22.20;52.70;;;;;;5016389;28;20482;-74
2023/04/10 00:23:51;;;;;;;5.20;4.80;;;22.20;52.80;;;;;;5031250;28;20878;-73
2023/04/10 00:26:22;;;;;;;5.67;5.27;;;22.20;52.80;;;;;;5001203;28;20469;-74
2023/04/10 00:28:50;;;;;;;5.60;5.13;;;22.20;52.80;;;;;;5030181;28;21009;-74
2023/04/10 00:31:19;;;;;;;6.40;5.87;;;22.20;52.80;;;;;;5030964;28;20509;-74
2023/04/10 00:33:47;;;;;;;5.13;4.73;;;22.20;52.80;;;;;;5013155;28;20858;-74
2023/04/10 00:36:16;;;;;;;5.80;5.37;;;22.20;52.80;;;;;;5030975;28;20480;-74
2023/04/10 00:38:44;;;;;;;5.57;5.17;;;22.20;52.80;;;;;;5030894;28;20451;-76
2023/04/10 00:41:12;;;;;;;5.47;5.00;;;22.20;52.80;;;;;;5008957;28;20495;-74
2023/04/10 00:43:42;;;;;;;5.70;5.30;;;22.10;52.80;;;;;;5028986;28;20458;-74
2023/04/10 00:46:10;;;;;;;5.50;5.00;;;22.10;52.80;;;;;;5029582;28;20485;-74
2023/04/10 00:48:39;;;;;;;5.90;5.40;;;22.10;52.80;;;;;;5030676;28;21189;-75
2023/04/10 00:51:08;;;;;;;6.07;5.10;;;22.10;52.80;;;;;;5013580;28;20545;-75
2023/04/10 00:53:36;;;;;;;5.57;5.07;;;22.10;52.80;;;;;;5030570;28;20576;-75
2023/04/10 00:56:07;;;;;;;5.60;5.10;;;22.10;52.80;;;;;;5024151;28;20469;-74
2023/04/10 00:58:35;;;;;;;6.40;5.90;;;22.10;52.80;;;;;;5030147;28;20443;-75
2023/04/10 01:01:05;;;;;;;5.33;4.93;;;22.10;52.80;;;;;;5031081;28;20541;-74
2023/04/10 01:03:33;;;;;;;6.03;5.53;;;22.10;52.80;;;;;;5018660;28;20830;-74
2023/04/10 01:06:08;;;;;;;5.07;4.67;;;22.10;52.80;;;;;;5025405;28;21104;-74
2023/04/10 01:08:47;;;;;;;5.60;5.20;;;22.00;52.80;;;;;;5024752;28;20469;-74
2023/04/10 01:11:23;;;;;;;5.00;4.60;;;22.00;52.80;;;;;;5031072;28;21494;-74
2023/04/10 01:13:59;;;;;;;4.90;4.60;;;22.00;52.80;;;;;;5033298;28;20490;-74
2023/04/10 01:16:35;;;;;;;5.10;4.70;;;22.00;52.80;;;;;;5025340;28;20988;-74
2023/04/10 01:19:13;;;;;;;5.77;5.23;;;22.00;52.80;;;;;;5030812;28;21500;-77
2023/04/10 01:21:42;;;;;;;4.50;4.10;;;22.00;52.80;;;;;;5033169;28;21003;-80
2023/04/10 01:24:31;;;;;;;4.60;4.30;;;22.00;52.80;;;;;;5016754;28;20454;-74
2023/04/10 01:27:12;;;;;;;5.40;4.93;;;22.00;52.80;;;;;;5034265;28;20446;-75
2023/04/10 01:29:47;;;;;;;6.03;5.53;;;22.00;52.80;;;;;;5015646;28;20548;-74
2023/04/10 01:32:20;;;;;;;6.20;5.70;;;22.00;52.80;;;;;;5016940;28;20505;-75
2023/04/10 01:34:52;;;;;;;4.80;4.40;;;22.00;52.80;;;;;;5033615;28;20516;-75
2023/04/10 01:37:23;;;;;;;5.10;4.70;;;21.90;52.80;;;;;;5034267;28;20533;-74
2023/04/10 01:39:57;;;;;;;5.70;5.20;;;21.90;52.80;;;;;;5032633;28;20496;-74
2023/04/10 01:42:30;;;;;;;5.50;5.10;;;21.90;52.80;;;;;;5020001;28;20457;-75
2023/04/10 01:45:01;;;;;;;5.80;5.40;;;21.90;52.80;;;;;;5015280;28;20485;-76
2023/04/10 01:47:30;;;;;;;5.40;4.93;;;21.90;52.80;;;;;;5020053;28;20479;-75
2023/04/10 01:49:59;;;;;;;5.50;5.10;;;21.90;52.80;;;;;;5033763;28;20937;-75
2023/04/10 01:52:28;;;;;;;4.77;4.47;;;21.90;52.80;;;;;;5016045;28;20497;-75
2023/04/10 01:55:07;;;;;;;6.17;5.67;;;21.80;52.80;;;;;;5005159;28;20466;-75
2023/04/10 01:57:44;;;;;;;5.90;5.40;;;21.80;52.80;;;;;;5016352;28;20507;-77
2023/04/10 02:00:14;;;;;;;5.13;4.63;;;21.80;52.80;;;;;;5014485;28;20465;-74
2023/04/10 02:02:43;;;;;;;5.00;4.67;;;21.80;52.80;;;;;;5020139;28;20799;-75
2023/04/10 02:05:11;;;;;;;5.20;4.87;;;21.80;52.80;;;;;;5015856;28;20447;-74
2023/04/10 02:07:44;;;;;;;5.33;4.83;;;21.80;52.80;;;;;;5016211;28;20954;-75
2023/04/10 02:10:21;;;;;;;5.70;5.20;;;21.80;52.80;;;;;;5015103;28;21028;-78
2023/04/10 02:12:55;;;;;;;5.43;5.03;;;21.80;52.80;;;;;;5015795;28;20791;-74
2023/04/10 02:15:27;;;;;;;5.70;5.20;;;21.80;52.80;;;;;;5023549;28;20464;-79
2023/04/10 02:17:59;;;;;;;5.70;5.20;;;21.80;52.90;;;;;;5015718;28;20458;-75
2023/04/10 02:20:28;;;;;;;5.10;4.70;;;21.70;52.80;;;;;;5031528;28;21066;-74
2023/04/10 02:22:58;;;;;;;5.80;5.20;;;21.80;52.90;;;;;;5014764;28;20458;-74
2023/04/10 02:25:26;;;;;;;4.80;4.50;;;21.70;52.80;;;;;;5016113;28;20465;-74
2023/04/10 02:27:55;;;;;;;5.40;5.00;;;21.70;52.80;;;;;;5032871;28;20534;-76
2023/04/10 02:30:24;;;;;;;5.50;5.07;;;21.70;52.80;;;;;;5032366;28;20477;-74
2023/04/10 02:32:53;;;;;;;5.53;5.07;;;21.70;52.80;;;;;;5033318;28;20569;-75
2023/04/10 02:35:21;;;;;;;5.77;5.33;;;21.70;52.90;;;;;;5031902;28;20446;-77
2023/04/10 02:37:49;;;;;;;5.37;4.97;;;21.70;52.80;;;;;;5031792;28;20464;-74
2023/04/10 02:40:18;;;;;;;5.63;5.20;;;21.70;52.80;;;;;;5016198;28;20950;-74
2023/04/10 02:42:53;;;;;;;6.20;5.60;;;21.70;52.90;;;;;;5013637;28;20470;-74
2023/04/10 02:45:22;;;;;;;5.30;4.90;;;21.70;52.80;;;;;;5014195;28;20459;-77
2023/04/10 02:47:51;;;;;;;5.60;5.10;;;21.70;52.80;;;;;;5017790;28;20573;-74
2023/04/10 02:50:20;;;;;;;4.93;4.53;;;21.70;53.00;;;;;;5014891;28;20487;-75
2023/04/10 02:52:48;;;;;;;5.43;4.93;;;21.60;52.90;;;;;;5032500;28;20497;-74
2023/04/10 02:55:16;;;;;;;5.47;4.97;;;21.60;52.90;;;;;;5015163;28;20459;-75
2023/04/10 02:57:45;;;;;;;6.13;5.63;;;21.60;52.90;;;;;;5028469;28;20453;-77
2023/04/10 03:00:14;;;;;;;5.60;5.10;;;21.60;53.00;;;;;;5010817;28;20498;-74
2023/04/10 03:03:02;;;;;;;4.80;4.40;;;21.60;53.00;;;;;;5030909;28;20449;-75
2023/04/10 03:05:39;;;;;;;5.13;4.73;;;21.60;53.00;;;;;;5019061;28;20836;-75
2023/04/10 03:08:08;;;;;;;5.40;4.90;;;21.60;53.00;;;;;;5032348;28;20461;-75
2023/04/10 03:10:36;;;;;;;5.70;5.30;;;21.60;52.90;;;;;;5013219;28;20467;-74
2023/04/10 03:13:04;;;;;;;5.20;4.80;;;21.60;52.90;;;;;;5032411;28;20481;-74
2023/04/10 03:15:32;;;;;;;5.77;5.37;;;21.60;53.00;;;;;;5011750;28;20490;-74
2023/04/10 03:18:02;;;;;;;7.23;6.63;;;21.60;52.90;;;;;;5014970;28;20862;-74
2023/04/10 03:20:31;;;;;;;5.23;4.90;;;21.60;52.90;;;;;;5014270;28;20457;-74
2023/04/10 03:22:59;;;;;;;5.27;4.87;;;21.60;52.90;;;;;;5032410;28;20512;-74
2023/04/10 03:25:27;;;;;;;4.80;4.47;;;21.50;52.90;;;;;;5014594;28;20946;-73
2023/04/10 03:27:56;;;;;;;6.00;5.50;;;21.50;52.90;;;;;;5014358;28;20458;-74
2023/04/10 03:30:24;;;;;;;5.40;5.00;;;21.50;52.90;;;;;;5012815;28;20570;-76
2023/04/10 03:32:52;;;;;;;5.33;4.93;;;21.50;52.90;;;;;;5017717;28;20996;-74
2023/04/10 03:35:23;;;;;;;4.87;4.47;;;21.50;52.90;;;;;;5020192;28;20529;-74
2023/04/10 03:37:51;;;;;;;5.90;5.40;;;21.50;52.90;;;;;;5014136;28;20553;-74
2023/04/10 03:40:20;;;;;;;5.70;5.20;;;21.50;52.90;;;;;;5013566;28;20465;-74
2023/04/10 03:42:49;;;;;;;5.70;5.20;;;21.50;53.00;;;;;;5032126;28;20460;-74
2023/04/10 03:45:17;;;;;;;4.90;4.50;;;21.50;53.00;;;;;;5012297;28;20450;-74
2023/04/10 03:47:45;;;;;;;5.00;4.60;;;21.50;53.00;;;;;;5030263;28;20442;-74
2023/04/10 03:50:18;;;;;;;5.70;5.30;;;21.50;53.00;;;;;;5006436;28;20457;-74
2023/04/10 03:53:01;;;;;;;4.70;4.30;;;21.50;53.10;;;;;;5013969;28;20497;-74
2023/04/10 03:55:30;;;;;;;5.03;4.63;;;21.50;53.00;;;;;;5012660;28;20507;-78
2023/04/10 03:57:58;;;;;;;5.07;4.67;;;21.50;53.00;;;;;;5013769;28;21009;-74
2023/04/10 04:00:27;;;;;;;5.00;4.60;;;21.50;53.00;;;;;;5012250;28;20972;-74
2023/04/10 04:03:03;;;;;;;5.57;5.07;;;21.60;53.00;;;;;;5019008;28;20960;-74
2023/04/10 04:05:51;;;;;;;4.40;4.10;;;21.60;53.00;;;;;;5029108;28;20538;-75
2023/04/10 04:08:31;;;;;;;4.50;4.10;;;21.60;52.90;;;;;;5013003;28;21404;-77
2023/04/10 04:11:06;;;;;;;5.23;4.83;;;21.60;52.90;;;;;;5029563;28;20468;-75
2023/04/10 04:13:38;;;;;;;5.50;5.07;;;21.60;52.90;;;;;;5010245;28;21007;-75
2023/04/10 04:16:10;;;;;;;4.77;4.37;;;21.60;52.90;;;;;;5012104;28;20467;-76
2023/04/10 04:18:49;;;;;;;4.97;4.57;;;21.70;52.80;;;;;;5011046;28;20455;-74
2023/04/10 04:21:21;;;;;;;4.93;4.53;;;21.70;52.70;;;;;;4999913;28;20956;-75
2023/04/10 04:24:06;;;;;;;5.30;4.90;;;21.70;52.70;;;;;;5011557;28;20546;-74
2023/04/10 04:27:07;;;;;;;6.10;5.50;;;21.70;52.60;;;;;;5017138;28;20461;-75
2023/04/10 04:29:48;;;;;;;5.53;5.07;;;21.80;52.00;;;;;;5003501;28;20472;-79
2023/04/10 04:32:23;;;;;;;5.57;5.07;;;21.90;51.50;;;;;;5006891;28;20454;-75
2023/04/10 04:34:57;;;;;;;6.20;5.70;;;21.90;51.20;;;;;;5011614;28;20592;-74
2023/04/10 04:37:43;;;;;;;6.93;6.40;;;21.90;51.00;;;;;;5030614;28;20456;-74
2023/04/10 04:40:31;;;;;;;5.27;4.80;;;21.90;50.80;;;;;;5023921;28;20442;-74
2023/04/10 04:43:37;;;;;;;6.30;5.80;;;21.80;51.50;;;;;;5028586;28;20474;-78
2023/04/10 04:46:24;;;;;;;5.70;5.20;;;21.80;51.40;;;;;;5035945;28;20541;-75
2023/04/10 04:49:31;;;;;;;4.90;4.50;;;21.80;51.50;;;;;;4993095;28;20491;-75
2023/04/10 04:52:17;;;;;;;7.73;5.33;;;21.80;51.60;;;;;;4992434;28;20973;-73
2023/04/10 04:55:12;;;;;;;5.57;5.07;;;21.80;51.60;;;;;;5008754;28;20500;-74
2023/04/10 04:58:04;;;;;;;5.53;5.00;;;21.80;51.70;;;;;;5026143;28;20455;-72
2023/04/10 05:00:46;;;;;;;5.90;5.40;;;21.80;51.70;;;;;;5020345;28;20502;-74
2023/04/10 05:03:52;;;;;;;5.63;4.80;;;21.80;51.70;;;;;;5010064;28;20467;-74
2023/04/10 05:06:41;;;;;;;5.27;4.77;;;21.80;51.80;;;;;;5035102;28;20468;-74
2023/04/10 05:09:23;;;;;;;5.10;4.60;;;21.70;51.80;;;;;;5012457;28;20464;-76
2023/04/10 05:12:10;;;;;;;4.97;4.57;;;21.80;51.90;;;;;;5033197;28;20452;-73
2023/04/10 05:14:57;;;;;;;5.80;5.30;;;21.80;52.00;;;;;;5013016;28;20486;-74
2023/04/10 05:17:34;;;;;;;7.80;5.33;;;21.70;52.00;;;;;;5037401;28;20454;-73
2023/04/10 05:20:12;;;;;;;4.83;4.53;;;21.70;52.10;;;;;;5004063;28;20475;-77
2023/04/10 05:23:00;;;;;;;5.10;4.70;;;21.80;52.20;;;;;;5032918;28;20456;-76
2023/04/10 05:25:47;;;;;;;5.87;5.37;;;21.80;52.20;;;;;;5035377;28;20447;-75
2023/04/10 05:28:33;;;;;;;5.33;4.93;;;21.80;52.30;;;;;;5033923;28;20457;-74
2023/04/10 05:31:21;;;;;;;6.17;5.57;;;21.80;52.40;;;;;;5033084;28;20579;-74
2023/04/10 05:34:05;;;;;;;5.40;4.90;;;21.80;52.50;;;;;;5036606;28;20645;-74
2023/04/10 05:36:44;;;;;;;5.83;5.33;;;21.80;52.50;;;;;;5037180;28;20472;-74
2023/04/10 05:39:20;;;;;;;6.53;5.77;;;21.80;52.60;;;;;;5017862;28;20480;-74
2023/04/10 05:42:12;;;;;;;5.50;5.00;;;21.80;52.60;;;;;;5026641;28;20452;-74
2023/04/10 05:44:47;;;;;;;6.10;5.60;;;21.80;52.60;;;;;;5024808;28;20934;-73
2023/04/10 05:47:46;;;;;;;4.90;4.50;;;21.90;52.60;;;;;;4979688;28;20827;-74
2023/04/10 05:50:27;;;;;;;4.90;4.40;;;21.90;52.50;;;;;;5004148;28;20464;-73
2023/04/10 05:53:14;;;;;;;5.47;5.00;;;21.90;52.50;;;;;;5035072;28;20509;-76
2023/04/10 05:55:51;;;;;;;5.40;4.73;;;21.90;52.50;;;;;;5014237;28;20474;-73
2023/04/10 05:58:36;;;;;;;5.97;5.37;;;21.90;52.50;;;;;;5014174;28;20970;-74
2023/04/10 06:01:07;;;;;;;7.03;5.17;;;21.90;52.50;;;;;;5032836;28;20454;-74
2023/04/10 06:03:45;;;;;;;7.77;5.57;;;22.00;52.50;;;;;;5014351;28;20458;-76
2023/04/10 06:06:15;;;;;;;7.07;5.23;;;22.00;52.50;;;;;;5015020;28;20472;-74
2023/04/10 06:08:44;;;;;;;7.00;5.30;;;22.00;52.40;;;;;;5012026;28;20538;-74
2023/04/10 06:11:12;;;;;;;5.63;5.17;;;22.00;52.40;;;;;;5013036;28;20511;-75
2023/04/10 06:13:44;;;;;;;4.80;4.40;;;22.00;52.40;;;;;;5002889;28;20512;-75
2023/04/10 06:16:13;;;;;;;5.30;4.80;;;22.00;52.40;;;;;;5014173;28;20540;-74
2023/04/10 06:18:45;;;;;;;5.37;4.97;;;22.10;52.30;;;;;;5015378;28;20502;-74
2023/04/10 06:21:13;;;;;;;5.07;4.67;;;22.10;52.30;;;;;;5018564;28;20458;-74
2023/04/10 06:23:41;;;;;;;6.60;4.67;;;22.10;52.20;;;;;;5015387;28;20801;-74
2023/04/10 06:26:10;;;;;;;5.83;5.00;;;22.10;52.20;;;;;;5015642;28;21036;-74
2023/04/10 06:28:38;;;;;;;5.77;5.37;;;22.10;52.20;;;;;;5014815;28;20455;-74
2023/04/10 06:31:07;;;;;;;5.43;4.83;;;22.10;52.20;;;;;;5015678;28;20482;-74
2023/04/10 06:33:37;;;;;;;5.63;4.40;;;22.10;52.10;;;;;;5015139;28;21044;-73
2023/04/10 06:36:09;;;;;;;5.63;5.23;;;22.10;52.10;;;;;;5015828;28;20916;-74
2023/04/10 06:38:44;;;;;;;5.30;4.73;;;22.10;52.10;;;;;;5013559;28;20521;-73
2023/04/10 06:41:13;;;;;;;5.07;4.67;;;22.10;52.00;;;;;;5012608;28;20495;-80
2023/04/10 06:43:41;;;;;;;5.87;5.27;;;22.10;52.00;;;;;;5025453;28;20460;-74
2023/04/10 06:46:09;;;;;;;5.53;4.77;;;22.10;52.00;;;;;;5031927;28;20952;-75
2023/04/10 06:48:37;;;;;;;5.73;5.00;;;22.10;52.00;;;;;;5032976;28;20451;-74
2023/04/10 06:51:07;;;;;;;5.10;4.60;;;22.10;52.00;;;;;;5033087;28;20463;-74
2023/04/10 06:53:35;;;;;;;5.20;4.70;;;22.10;52.00;;;;;;5032441;28;20965;-73
2023/04/10 06:56:04;;;;;;;4.67;4.27;;;22.10;52.00;;;;;;5031553;28;20491;-76
2023/04/10 06:58:32;;;;;;;5.00;4.60;;;22.10;52.00;;;;;;5031143;28;20450;-74
2023/04/10 07:01:03;;;;;;;5.10;4.70;;;22.10;52.00;;;;;;5023016;28;20450;-75
2023/04/10 07:03:32;;;;;;;5.60;5.00;;;22.10;52.10;;;;;;5029913;28;20937;-77
2023/04/10 07:06:02;;;;;;;5.50;3.90;;;22.10;52.00;;;;;;5032376;28;20446;-74
2023/04/10 07:08:31;;;;;;;4.80;4.40;;;22.10;52.00;;;;;;5024463;28;20464;-74
2023/04/10 07:11:00;;;;;;;5.07;4.67;;;22.10;52.00;;;;;;5032531;28;20458;-74
2023/04/10 07:13:28;;;;;;;4.17;3.87;;;22.10;52.00;;;;;;5013724;28;20860;-74
2023/04/10 07:15:56;;;;;;;5.53;5.00;;;22.10;52.00;;;;;;5022844;28;20476;-77
2023/04/10 07:18:24;;;;;;;4.80;4.40;;;22.10;52.00;;;;;;5032246;28;20467;-74
2023/04/10 07:20:52;;;;;;;5.10;4.70;;;22.20;52.00;;;;;;5032377;28;20463;-74
2023/04/10 07:23:21;;;;;;;5.07;4.67;;;22.20;52.00;;;;;;5032598;28;20509;-74
2023/04/10 07:25:51;;;;;;;5.13;4.73;;;22.20;52.00;;;;;;5032489;28;20458;-73
2023/04/10 07:28:19;;;;;;;5.33;4.90;;;22.20;52.00;;;;;;5031726;28;20509;-73
2023/04/10 07:30:49;;;;;;;5.10;4.20;;;22.20;52.00;;;;;;5031991;28;20466;-73
2023/04/10 07:33:17;;;;;;;4.57;4.10;;;22.20;52.00;;;;;;5031976;28;20513;-74
2023/04/10 07:35:46;;;;;;;5.20;4.70;;;22.30;52.00;;;;;;5031951;28;20485;-74
2023/04/10 07:38:14;;;;;;;6.07;5.10;;;22.30;52.00;;;;;;5032029;28;20554;-78
2023/04/10 07:40:42;;;;;;;4.97;4.57;;;22.30;51.90;;;;;;5031269;28;20455;-74
2023/04/10 07:43:12;;;;;;;4.90;4.40;;;22.30;51.90;;;;;;5031193;28;20880;-77
2023/04/10 07:45:41;;;;;;;5.30;4.90;;;22.30;52.00;;;;;;5031926;28;20527;-74
2023/04/10 07:48:10;;;;;;;4.87;4.37;;;22.30;52.00;;;;;;5030141;28;20501;-74
2023/04/10 07:50:38;;;;;;;5.43;4.93;;;22.30;51.90;;;;;;5031354;28;20808;-74
2023/04/10 07:53:06;;;;;;;5.40;5.00;;;22.30;52.00;;;;;;5032169;28;20666;-74
2023/04/10 07:55:38;;;;;;;4.50;4.10;;;22.30;52.00;;;;;;5031544;28;20546;-74
2023/04/10 07:58:06;;;;;;;5.10;4.67;;;22.30;52.00;;;;;;5031456;28;20958;-74
2023/04/10 08:00:36;;;;;;;7.40;4.37;;;22.30;52.00;;;;;;5030881;28;20934;-74
2023/04/10 08:03:05;;;;;;;5.50;5.07;;;22.40;52.00;;;;;;5031755;28;20562;-75
2023/04/10 08:05:33;;;;;;;5.40;4.57;;;22.40;52.00;;;;;;5031507;28;20455;-74
2023/04/10 08:08:01;;;;;;;4.23;3.93;;;22.40;52.00;;;;;;5031906;28;21010;-76
2023/04/10 08:10:30;;;;;;;4.87;4.47;;;22.40;52.00;;;;;;5031551;28;20463;-74
2023/04/10 08:12:58;;;;;;;4.37;3.97;;;22.40;52.00;;;;;;5031826;28;20530;-73
2023/04/10 08:15:26;;;;;;;4.67;4.30;;;22.40;52.00;;;;;;5029851;28;20566;-73
2023/04/10 08:17:55;;;;;;;5.10;4.70;;;22.40;51.90;;;;;;5029531;28;20959;-76
2023/04/10 08:20:24;;;;;;;5.00;4.50;;;22.40;51.90;;;;;;5030432;28;20463;-74
2023/04/10 08:22:52;;;;;;;5.03;4.63;;;22.40;51.90;;;;;;5031458;28;20458;-73
2023/04/10 08:25:20;;;;;;;4.90;4.50;;;22.40;51.90;;;;;;5013455;28;20534;-74
2023/04/10 08:27:48;;;;;;;5.23;4.83;;;22.40;51.90;;;;;;5031714;28;20553;-74
2023/04/10 08:30:16;;;;;;;4.90;4.50;;;22.40;51.90;;;;;;5029817;28;20533;-74
2023/04/10 08:32:44;;;;;;;4.83;4.43;;;22.40;51.90;;;;;;5030399;28;20459;-74
2023/04/10 08:35:14;;;;;;;5.33;4.90;;;22.40;51.90;;;;;;5031302;28;20546;-75
2023/04/10 08:37:42;;;;;;;4.80;4.40;;;22.40;51.90;;;;;;5017007;28;21269;-73
2023/04/10 08:40:20;;;;;;;5.10;4.60;;;22.40;51.90;;;;;;5030969;28;20926;-73
2023/04/10 08:42:50;;;;;;;4.53;4.20;;;22.40;51.90;;;;;;5031484;28;20505;-73
2023/04/10 08:45:18;;;;;;;4.23;3.93;;;22.40;51.90;;;;;;5030530;28;20451;-74
2023/04/10 08:47:51;;;;;;;4.40;4.10;;;22.40;51.90;;;;;;5030104;28;20459;-79
2023/04/10 08:50:21;;;;;;;4.60;4.30;;;22.40;51.90;;;;;;5030038;28;20820;-74
2023/04/10 08:52:53;;;;;;;4.83;4.43;;;22.40;51.90;;;;;;5030481;28;20485;-74
2023/04/10 08:55:22;;;;;;;4.60;4.20;;;22.40;51.90;;;;;;5028824;28;20529;-73
2023/04/10 08:57:51;;;;;;;4.23;3.80;;;22.40;52.00;;;;;;5031556;28;20985;-74
2023/04/10 09:00:30;;;;;;;3.70;3.40;;;22.40;52.00;;;;;;5012129;28;20886;-74
2023/04/10 09:02:58;;;;;;;4.07;3.77;;;22.40;52.00;;;;;;5016368;28;20474;-74
2023/04/10 09:05:29;;;;;;;4.33;4.03;;;22.40;52.00;;;;;;5030975;28;20586;-75
2023/04/10 09:07:58;;;;;;;4.03;3.73;;;22.40;52.00;;;;;;5028733;28;20500;-74
2023/04/10 09:10:26;;;;;;;3.90;3.60;;;22.40;52.00;;;;;;5029652;28;20465;-74
2023/04/10 09:12:54;;;;;;;3.47;3.20;;;22.40;52.00;;;;;;5013467;28;20458;-76
2023/04/10 09:15:22;;;;;;;5.03;4.27;;;22.40;52.00;;;;;;5023677;28;20460;-76
2023/04/10 09:17:58;;;;;;;4.40;4.10;;;22.40;52.00;;;;;;5027704;28;20479;-74
2023/04/10 09:20:29;;;;;;;3.70;3.40;;;22.40;52.00;;;;;;5030483;28;20442;-74
2023/04/10 09:22:57;;;;;;;3.60;3.40;;;22.50;52.00;;;;;;5028698;28;20474;-74
2023/04/10 09:25:32;;;;;;;4.37;3.97;;;22.50;52.00;;;;;;5030137;28;20472;-74
2023/04/10 09:28:01;;;;;;;4.37;4.07;;;22.50;52.00;;;;;;5030802;28;20553;-73
2023/04/10 09:30:39;;;;;;;4.30;3.90;;;22.50;51.90;;;;;;5031806;28;20459;-73
2023/04/10 09:33:22;;;;;;;4.37;4.07;;;22.50;52.00;;;;;;5033957;28;20471;-74
2023/04/10 09:35:52;;;;;;;4.80;4.40;;;22.50;51.90;;;;;;5034902;28;20448;-74
2023/04/10 09:38:21;;;;;;;4.27;3.90;;;22.50;51.90;;;;;;5033923;28;20486;-74
2023/04/10 09:40:50;;;;;;;4.73;4.33;;;22.50;51.90;;;;;;5032140;28;20460;-74
2023/04/10 09:43:22;;;;;;;4.73;4.30;;;22.50;51.90;;;;;;5034135;28;20447;-74
2023/04/10 09:45:51;;;;;;;4.40;4.10;;;22.50;51.90;;;;;;5033733;28;20954;-74
2023/04/10 09:48:20;;;;;;;4.63;4.30;;;22.60;51.90;;;;;;5034221;28;20494;-75
2023/04/10 09:50:49;;;;;;;3.97;3.67;;;22.60;51.90;;;;;;5033822;28;20551;-74
2023/04/10 09:53:19;;;;;;;4.63;4.23;;;22.60;51.90;;;;;;5033778;28;20470;-74
2023/04/10 09:55:49;;;;;;;4.47;4.00;;;22.60;51.80;;;;;;5034038;28;20476;-74
2023/04/10 09:58:17;;;;;;;4.00;3.70;;;22.60;51.80;;;;;;5033031;28;20483;-74
2023/04/10 10:00:47;;;;;;;4.27;3.87;;;22.60;51.70;;;;;;5032980;28;20527;-74
2023/04/10 10:03:17;;;;;;;4.57;4.17;;;22.60;51.70;;;;;;5016122;28;20467;-74
2023/04/10 10:05:48;;;;;;;4.30;3.90;;;22.60;51.70;;;;;;5033135;28;20436;-74
2023/04/10 10:08:18;;;;;;;4.43;4.00;;;22.60;51.70;;;;;;5013909;28;20495;-77
2023/04/10 10:10:48;;;;;;;3.97;3.67;;;22.70;51.70;;;;;;5033072;28;20537;-74
2023/04/10 10:13:19;;;;;;;4.37;4.07;;;22.70;51.70;;;;;;5032928;28;20456;-74
2023/04/10 10:15:51;;;;;;;4.23;3.80;;;22.70;51.60;;;;;;5018573;28;20474;-74
2023/04/10 10:18:25;;;;;;;3.87;3.57;;;22.70;51.60;;;;;;5033548;28;20525;-74
2023/04/10 10:20:54;;;;;;;3.97;3.70;;;22.70;51.60;;;;;;5033081;28;20488;-75
2023/04/10 10:23:24;;;;;;;4.67;4.27;;;22.70;51.60;;;;;;5033424;28;20458;-77
2023/04/10 10:25:53;;;;;;;3.93;3.63;;;22.70;51.60;;;;;;5033308;28;20539;-76
2023/04/10 10:28:24;;;;;;;3.80;3.50;;;22.60;51.60;;;;;;5033035;28;20458;-74
2023/04/10 10:30:53;;;;;;;4.00;3.70;;;22.70;51.60;;;;;;5033165;28;20447;-78
2023/04/10 10:33:21;;;;;;;4.10;3.80;;;22.70;51.60;;;;;;5033338;28;20444;-74
2023/04/10 10:35:53;;;;;;;4.00;3.70;;;22.70;51.60;;;;;;5033053;28;20466;-74
2023/04/10 10:38:23;;;;;;;3.77;3.50;;;22.70;51.60;;;;;;5033019;28;20586;-74
2023/04/10 10:41:01;;;;;;;4.30;3.90;;;22.70;51.60;;;;;;5014412;28;20482;-74
2023/04/10 10:43:38;;;;;;;5.00;4.00;;;22.70;51.60;;;;;;5030862;28;21023;-74
2023/04/10 10:46:10;;;;;;;4.70;4.30;;;22.60;51.70;;;;;;5031190;28;20454;-74
2023/04/10 10:48:38;;;;;;;4.27;3.93;;;22.70;51.90;;;;;;5030815;28;20480;-74
2023/04/10 10:51:07;;;;;;;3.53;3.33;;;22.70;51.90;;;;;;5028185;28;20444;-74
2023/04/10 10:53:39;;;;;;;4.27;3.97;;;22.70;51.90;;;;;;5016587;28;20488;-74
2023/04/10 10:56:35;;;;;;;4.47;4.07;;;22.70;51.80;;;;;;5028958;28;20458;-74
2023/04/10 10:59:04;;;;;;;4.03;3.73;;;22.80;51.80;;;;;;5014208;28;20804;-78
2023/04/10 11:01:32;;;;;;;3.17;2.97;;;22.80;51.70;;;;;;5032375;28;20480;-74
2023/04/10 11:04:00;;;;;;;4.13;3.83;;;22.90;51.70;;;;;;5033196;28;20473;-74
2023/04/10 11:06:48;;;;;;;4.13;3.83;;;22.90;51.50;;;;;;5013497;28;20493;-74
2023/04/10 11:09:49;;;;;;;3.60;3.30;;;23.00;51.50;;;;;;5014650;28;20557;-75
2023/04/10 11:12:20;;;;;;;3.73;3.40;;;23.10;51.20;;;;;;5031615;28;20500;-74
2023/04/10 11:14:58;;;;;;;3.90;3.60;;;23.10;51.10;;;;;;5013753;28;20457;-74
2023/04/10 11:17:49;;;;;;;3.90;3.60;;;23.30;50.90;;;;;;5032084;28;20503;-74
2023/04/10 11:20:20;;;;;;;4.30;3.90;;;23.40;50.70;;;;;;4995214;28;20540;-74
2023/04/10 11:23:09;;;;;;;3.67;3.37;;;23.60;50.30;;;;;;5025034;28;20459;-74
2023/04/10 11:25:49;;;;;;;4.10;3.80;;;23.90;50.10;;;;;;5030193;28;20998;-74
2023/04/10 11:28:37;;;;;;;3.57;3.27;;;24.00;49.70;;;;;;5028435;28;20490;-79
2023/04/10 11:31:18;;;;;;;3.40;3.20;;;24.20;49.30;;;;;;5031643;28;20480;-74
2023/04/10 11:33:47;;;;;;;3.83;3.53;;;24.30;49.20;;;;;;5028230;28;20440;-74
2023/04/10 11:36:17;;;;;;;3.90;3.60;;;24.40;49.00;;;;;;5032045;28;20509;-74
2023/04/10 11:38:56;;;;;;;4.47;4.07;;;24.40;49.00;;;;;;5032286;28;20566;-75
2023/04/10 11:41:30;;;;;;;3.40;3.20;;;24.50;48.80;;;;;;5031549;28;20948;-78
2023/04/10 11:43:59;;;;;;;3.77;3.47;;;24.60;48.60;;;;;;5030525;28;20965;-75
2023/04/10 11:46:27;;;;;;;3.40;3.20;;;24.70;48.50;;;;;;5032440;28;20512;-75
2023/04/10 11:48:58;;;;;;;4.30;4.00;;;24.70;48.30;;;;;;5013981;28;20457;-75
2023/04/10 11:51:27;;;;;;;3.80;3.50;;;24.80;48.20;;;;;;5013963;28;20872;-74
2023/04/10 11:54:08;;;;;;;3.20;3.00;;;24.90;48.10;;;;;;5030740;28;20453;-76
2023/04/10 11:56:39;;;;;;;4.10;3.80;;;24.90;48.20;;;;;;5031549;28;21040;-74
2023/04/10 11:59:09;;;;;;;3.73;3.43;;;24.90;48.10;;;;;;5030617;28;20486;-75
2023/04/10 12:01:38;;;;;;;3.50;3.30;;;24.90;48.10;;;;;;5017762;28;20494;-74
2023/04/10 12:04:16;;;;;;;3.43;3.23;;;24.80;48.10;;;;;;5031172;28;20532;-74
2023/04/10 12:06:47;;;;;;;3.33;3.13;;;24.80;48.20;;;;;;5013819;28;20536;-77
2023/04/10 12:09:16;;;;;;;3.37;3.17;;;24.80;48.30;;;;;;5031431;28;20530;-75
2023/04/10 12:11:55;;;;;;;3.30;3.10;;;24.80;48.40;;;;;;5012766;28;20808;-76
2023/04/10 12:14:29;;;;;;;3.13;2.93;;;24.80;48.30;;;;;;5030296;28;20441;-74
2023/04/10 12:16:57;;;;;;;3.50;3.30;;;24.90;48.30;;;;;;5032137;28;20459;-75
2023/04/10 12:19:26;;;;;;;3.60;3.40;;;24.90;48.30;;;;;;5030687;28;20529;-75
2023/04/10 12:21:55;;;;;;;4.07;3.77;;;24.90;48.20;;;;;;5031320;28;20497;-77
2023/04/10 12:24:43;;;;;;;3.03;2.83;;;24.90;48.20;;;;;;5031196;28;20533;-75
2023/04/10 12:27:17;;;;;;;3.43;3.23;;;25.00;48.10;;;;;;5030967;28;21040;-75
2023/04/10 12:29:46;;;;;;;3.40;3.10;;;25.00;48.10;;;;;;5030020;28;20507;-75
2023/04/10 12:32:15;;;;;;;2.90;2.70;;;25.00;48.00;;;;;;5031272;28;20446;-77
2023/04/10 12:34:49;;;;;;;2.97;2.77;;;25.10;48.00;;;;;;5030916;28;20458;-74
2023/04/10 12:37:17;;;;;;;3.50;3.30;;;25.10;47.90;;;;;;5030211;28;20449;-79
2023/04/10 12:39:45;;;;;;;3.30;3.10;;;25.20;47.80;;;;;;5030824;28;20504;-76
2023/04/10 12:42:15;;;;;;;3.53;3.23;;;25.20;47.80;;;;;;5030198;28;20513;-80
2023/04/10 12:44:56;;;;;;;2.87;2.67;;;25.20;47.70;;;;;;5029113;28;20481;-78
2023/04/10 12:47:25;;;;;;;3.33;3.13;;;25.30;47.60;;;;;;5016407;28;20950;-77
2023/04/10 12:50:14;;;;;;;3.63;3.33;;;25.30;47.60;;;;;;5028914;28;20453;-74
2023/04/10 12:52:46;;;;;;;3.40;3.10;;;25.30;47.60;;;;;;5016044;28;20543;-75
2023/04/10 12:55:16;;;;;;;3.20;3.00;;;25.40;47.50;;;;;;5030980;28;20454;-76
2023/04/10 12:57:45;;;;;;;3.23;3.03;;;25.40;47.50;;;;;;5030414;28;20448;-77
2023/04/10 13:00:17;;;;;;;3.37;3.17;;;25.40;47.50;;;;;;5019987;28;20499;-74
2023/04/10 13:02:46;;;;;;;3.63;3.33;;;25.50;47.40;;;;;;5031455;28;20937;-76
2023/04/10 13:05:15;;;;;;;3.00;2.80;;;25.50;47.40;;;;;;5032630;28;20447;-77
2023/04/10 13:07:43;;;;;;;3.27;3.07;;;25.50;47.30;;;;;;5034916;28;20534;-75
2023/04/10 13:10:11;;;;;;;3.27;3.07;;;25.50;47.20;;;;;;5028342;28;21535;-74
2023/04/10 13:12:40;;;;;;;2.87;2.67;;;25.50;47.30;;;;;;5034690;28;20454;-74
2023/04/10 13:15:10;;;;;;;2.97;2.77;;;25.60;47.30;;;;;;5019806;28;20450;-75
2023/04/10 13:17:40;;;;;;;3.47;3.17;;;25.50;47.30;;;;;;5032233;28;20561;-76